createdAt,value
2022-10-04T00:00:26.153Z,23.45
2022-10-04T00:02:54.798Z,21.35
2022-10-04T00:05:25.279Z,20.05
2022-10-04T00:07:55.380Z,29.70
2022-10-04T00:10:24.256Z,17.33
2022-10-04T00:12:53.197Z,22.17
2022-10-04T00:15:22.334Z,20.13
2022-10-04T00:18:01.584Z,16.50
2022-10-04T00:20:48.115Z,18.33
2022-10-04T00:23:30.721Z,21.90
2022-10-04T00:25:59.308Z,16.20
2022-10-04T00:28:44.004Z,19.80
2022-10-04T00:31:26.476Z,19.00
2022-10-04T00:33:55.540Z,19.67
2022-10-04T00:36:37.455Z,15.85
2022-10-04T00:39:15.185Z,18.52
2022-10-04T00:41:53.195Z,19.05
2022-10-04T00:44:24.042Z,18.48
2022-10-04T00:46:52.782Z,17.67
2022-10-04T00:49:22.460Z,18.08
2022-10-04T00:51:53.011Z,15.70
2022-10-04T00:54:24.061Z,13.85
2022-10-04T00:56:53.331Z,18.83
2022-10-04T00:59:36.017Z,11.75
2022-10-04T01:02:05.803Z,15.90
2022-10-04T01:04:39.555Z,15.35
2022-10-04T01:07:07.964Z,10.75
2022-10-04T01:09:39.824Z,13.68
2022-10-04T01:12:11.167Z,13.90
2022-10-04T01:14:43.672Z,22.08
2022-10-04T01:17:11.217Z,16.42
2022-10-04T01:19:41.268Z,22.95
2022-10-04T01:22:12.879Z,19.48
2022-10-04T01:24:42.231Z,12.77
2022-10-04T01:27:24.651Z,15.63
2022-10-04T01:29:52.192Z,13.02
2022-10-04T01:32:19.761Z,14.15
2022-10-04T01:34:47.313Z,14.88
2022-10-04T01:37:14.854Z,14.85
2022-10-04T01:39:44.043Z,18.75
2022-10-04T01:42:14.442Z,13.38
2022-10-04T01:44:46.170Z,13.75
2022-10-04T01:47:15.990Z,22.48
2022-10-04T01:49:44.968Z,17.55
2022-10-04T01:52:16.858Z,14.80
2022-10-04T01:54:47.633Z,22.55
2022-10-04T01:57:17.703Z,16.80
2022-10-04T01:59:47.523Z,21.77
2022-10-04T02:02:20.922Z,17.63
2022-10-04T02:04:52.565Z,17.27
2022-10-04T02:07:20.613Z,17.85
2022-10-04T02:09:51.610Z,16.63
2022-10-04T02:12:19.933Z,14.80
2022-10-04T02:14:53.167Z,16.05
2022-10-04T02:17:22.433Z,18.42
2022-10-04T02:19:50.120Z,15.55
2022-10-04T02:22:18.520Z,17.75
2022-10-04T02:24:47.464Z,15.27
2022-10-04T02:27:16.859Z,18.40
2022-10-04T02:29:44.564Z,18.35
2022-10-04T02:32:29.845Z,18.83
2022-10-04T02:34:57.802Z,19.58
2022-10-04T02:37:26.307Z,17.55
2022-10-04T02:39:55.087Z,23.60
2022-10-04T02:42:34.703Z,16.65
2022-10-04T02:45:06.544Z,12.10
2022-10-04T02:47:38.099Z,20.83
2022-10-04T02:50:07.965Z,19.77
2022-10-04T02:52:39.145Z,13.27
2022-10-04T02:55:10.496Z,20.60
2022-10-04T02:57:42.241Z,15.95
2022-10-04T03:00:14.752Z,17.40
2022-10-04T03:02:42.399Z,15.57
2022-10-04T03:05:11.677Z,17.67
2022-10-04T03:07:40.210Z,15.98
2022-10-04T03:10:09.873Z,17.52
2022-10-04T03:12:39.021Z,12.00
2022-10-04T03:15:08.159Z,20.05
2022-10-04T03:17:36.139Z,19.02
2022-10-04T03:20:04.749Z,17.40
2022-10-04T03:22:32.494Z,14.13
2022-10-04T03:25:00.606Z,21.83
2022-10-04T03:27:30.382Z,13.70
2022-10-04T03:30:00.129Z,21.98
2022-10-04T03:32:30.365Z,17.58
2022-10-04T03:34:59.095Z,14.55
2022-10-04T03:37:27.346Z,15.45
2022-10-04T03:39:56.060Z,17.33
2022-10-04T03:42:25.564Z,14.75
2022-10-04T03:44:54.646Z,17.67
2022-10-04T03:47:25.359Z,23.63
2022-10-04T03:49:54.880Z,13.93
2022-10-04T03:52:23.885Z,17.75
2022-10-04T03:54:52.681Z,16.38
2022-10-04T03:57:20.473Z,15.68
2022-10-04T03:59:48.347Z,20.25
2022-10-04T04:02:19.394Z,15.13
2022-10-04T04:04:53.449Z,17.65
2022-10-04T04:07:23.535Z,15.25
2022-10-04T04:09:53.081Z,16.80
2022-10-04T04:12:22.723Z,12.57
2022-10-04T04:14:51.644Z,13.00
2022-10-04T04:17:30.104Z,17.23
2022-10-04T04:20:04.756Z,13.57
2022-10-04T04:22:35.237Z,12.48
2022-10-04T04:25:04.808Z,16.08
2022-10-04T04:27:35.582Z,9.90
2022-10-04T04:30:04.024Z,14.77
2022-10-04T04:32:32.961Z,13.25
2022-10-04T04:35:07.046Z,12.73
2022-10-04T04:37:35.595Z,16.80
2022-10-04T04:40:12.964Z,10.35
2022-10-04T04:42:40.500Z,18.98
2022-10-04T04:45:16.690Z,10.27
2022-10-04T04:47:45.496Z,9.80
2022-10-04T04:50:16.118Z,9.50
2022-10-04T04:52:45.641Z,12.38
2022-10-04T04:55:17.969Z,8.75
2022-10-04T04:57:45.862Z,8.23
2022-10-04T05:00:17.862Z,10.73
2022-10-04T05:02:56.151Z,14.27
2022-10-04T05:05:28.536Z,10.80
2022-10-04T05:08:11.399Z,11.13
2022-10-04T05:10:41.350Z,12.75
2022-10-04T05:13:09.887Z,7.78
2022-10-04T05:15:38.904Z,12.18
2022-10-04T05:18:17.931Z,13.32
2022-10-04T05:20:49.469Z,10.35
2022-10-04T05:23:17.208Z,14.05
2022-10-04T05:25:44.899Z,13.35
2022-10-04T05:28:15.055Z,9.60
2022-10-04T05:30:48.660Z,18.77
2022-10-04T05:33:21.463Z,11.10
2022-10-04T05:35:58.376Z,9.80
2022-10-04T05:38:31.980Z,14.90
2022-10-04T05:41:02.945Z,11.25
2022-10-04T05:43:32.844Z,8.55
2022-10-04T05:46:14.414Z,9.95
2022-10-04T05:48:43.325Z,12.95
2022-10-04T05:51:15.857Z,9.60
2022-10-04T05:53:44.143Z,11.93
2022-10-04T05:56:16.818Z,9.95
2022-10-04T05:58:51.768Z,9.38
2022-10-04T06:01:28.929Z,11.52
2022-10-04T06:04:04.602Z,15.35
2022-10-04T06:06:40.283Z,11.70
2022-10-04T06:09:11.072Z,7.72
2022-10-04T06:11:46.160Z,13.18
2022-10-04T06:14:21.016Z,13.38
2022-10-04T06:16:58.564Z,16.58
2022-10-04T06:19:35.685Z,8.13
2022-10-04T06:22:13.076Z,14.82
2022-10-04T06:24:42.252Z,12.00
2022-10-04T06:27:11.852Z,14.52
2022-10-04T06:29:41.371Z,14.30
2022-10-04T06:32:15.606Z,10.32
2022-10-04T06:34:49.180Z,16.38
2022-10-04T06:37:27.892Z,13.07
2022-10-04T06:40:06.070Z,15.52
2022-10-04T06:42:42.656Z,16.13
2022-10-04T06:45:21.102Z,15.77
2022-10-04T06:48:00.908Z,17.40
2022-10-04T06:50:29.648Z,12.90
2022-10-04T06:53:05.572Z,12.93
2022-10-04T06:55:51.377Z,14.80
2022-10-04T06:58:36.828Z,13.95
2022-10-04T07:01:05.736Z,12.98
2022-10-04T07:03:36.692Z,13.57
2022-10-04T07:06:05.653Z,11.98
2022-10-04T07:08:38.550Z,11.50
2022-10-04T07:11:12.129Z,12.60
2022-10-04T07:13:42.339Z,16.63
2022-10-04T07:16:18.622Z,15.65
2022-10-04T07:18:50.806Z,11.93
2022-10-04T07:21:19.140Z,13.23
2022-10-04T07:23:50.728Z,13.35
2022-10-04T07:26:22.287Z,16.27
2022-10-04T07:29:08.563Z,13.15
2022-10-04T07:31:38.375Z,18.33
2022-10-04T07:34:10.603Z,14.35
2022-10-04T07:36:40.800Z,15.38
2022-10-04T07:39:13.035Z,14.82
2022-10-04T07:41:46.400Z,15.43
2022-10-04T07:44:16.003Z,21.55
2022-10-04T07:46:49.689Z,13.05
2022-10-04T07:49:18.090Z,11.05
2022-10-04T07:51:55.439Z,10.88
2022-10-04T07:54:27.644Z,15.13
2022-10-04T07:56:57.984Z,12.75
2022-10-04T07:59:32.874Z,16.30
2022-10-04T08:02:07.057Z,16.92
2022-10-04T08:04:42.594Z,16.20
2022-10-04T08:07:16.277Z,11.70
2022-10-04T08:09:48.082Z,13.90
2022-10-04T08:12:19.037Z,11.23
2022-10-04T08:15:10.177Z,15.85
2022-10-04T08:17:43.786Z,8.75
2022-10-04T08:20:21.973Z,14.63
2022-10-04T08:22:57.883Z,13.02
2022-10-04T08:25:28.393Z,10.18
2022-10-04T08:28:20.660Z,12.65
2022-10-04T08:30:57.464Z,13.20
2022-10-04T08:33:31.219Z,12.98
2022-10-04T08:36:03.760Z,11.38
2022-10-04T08:38:41.672Z,15.50
2022-10-04T08:41:27.247Z,20.75
2022-10-04T08:44:14.885Z,17.67
2022-10-04T08:47:03.518Z,9.18
2022-10-04T08:49:42.661Z,11.75
2022-10-04T08:52:20.481Z,12.63
2022-10-04T08:55:01.295Z,12.48
2022-10-04T08:57:39.813Z,10.55
2022-10-04T09:00:15.385Z,11.23
2022-10-04T09:03:01.289Z,10.63
2022-10-04T09:05:45.807Z,11.35
2022-10-04T09:08:34.383Z,9.40
2022-10-04T09:11:11.209Z,11.15
2022-10-04T09:13:44.872Z,8.55
2022-10-04T09:16:26.217Z,9.15
2022-10-04T09:19:14.400Z,12.70
2022-10-04T09:21:55.847Z,10.77
2022-10-04T09:24:34.442Z,14.32
2022-10-04T09:27:13.060Z,10.93
2022-10-04T09:29:52.360Z,11.85
2022-10-04T09:32:33.342Z,9.63
2022-10-04T09:35:09.180Z,12.20
2022-10-04T09:37:45.373Z,11.07
2022-10-04T09:40:46.567Z,10.30
2022-10-04T09:43:30.316Z,11.00
2022-10-04T09:46:11.949Z,15.27
2022-10-04T09:48:44.542Z,8.52
2022-10-04T09:51:19.522Z,12.30
2022-10-04T09:53:55.857Z,9.18
2022-10-04T09:56:35.049Z,10.15
2022-10-04T09:59:12.539Z,8.38
2022-10-04T10:02:00.125Z,9.57
2022-10-04T10:04:38.038Z,9.27
2022-10-04T10:07:13.494Z,8.48
2022-10-04T10:10:01.948Z,9.55
2022-10-04T10:12:58.868Z,11.30
2022-10-04T10:15:30.209Z,7.68
2022-10-04T10:18:08.721Z,7.75
2022-10-04T10:20:51.375Z,7.65
2022-10-04T10:23:39.881Z,9.38
2022-10-04T10:26:30.748Z,9.18
2022-10-04T10:29:25.366Z,13.32
2022-10-04T10:32:01.287Z,9.18
2022-10-04T10:34:56.079Z,14.13
2022-10-04T10:37:26.706Z,10.10
2022-10-04T10:40:04.001Z,12.50
2022-10-04T10:42:52.075Z,11.32
2022-10-04T10:45:34.265Z,7.88
2022-10-04T10:48:06.386Z,10.15
2022-10-04T10:50:59.344Z,7.97
2022-10-04T10:53:54.644Z,8.82
2022-10-04T10:56:32.593Z,10.48
2022-10-04T10:59:27.440Z,8.77
2022-10-04T11:02:07.064Z,8.13
2022-10-04T11:04:45.444Z,9.77
2022-10-04T11:07:22.808Z,9.18
2022-10-04T11:10:11.789Z,10.35
2022-10-04T11:12:57.039Z,9.90
2022-10-04T11:15:39.395Z,8.65
2022-10-04T11:18:31.367Z,8.35
2022-10-04T11:21:17.168Z,9.70
2022-10-04T11:23:55.508Z,10.82
2022-10-04T11:26:39.432Z,9.77
2022-10-04T11:29:11.989Z,10.85
2022-10-04T11:31:45.911Z,8.48
2022-10-04T11:34:31.874Z,10.70
2022-10-04T11:37:06.036Z,11.25
2022-10-04T11:39:48.512Z,7.97
2022-10-04T11:42:20.311Z,12.43
2022-10-04T11:44:55.246Z,9.27
2022-10-04T11:47:33.953Z,8.85
2022-10-04T11:50:09.726Z,9.57
2022-10-04T11:52:49.531Z,10.57
2022-10-04T11:55:35.104Z,9.27
2022-10-04T11:58:11.781Z,10.00
2022-10-04T12:00:52.137Z,10.82
2022-10-04T12:03:36.471Z,7.00
2022-10-04T12:06:09.669Z,9.77
2022-10-04T12:08:48.838Z,8.15
2022-10-04T12:11:27.206Z,6.40
2022-10-04T12:14:02.212Z,10.52
2022-10-04T12:17:03.819Z,7.10
2022-10-04T12:19:44.008Z,8.10
2022-10-04T12:22:30.095Z,6.45
2022-10-04T12:25:12.561Z,6.00
2022-10-04T12:27:52.544Z,6.40
2022-10-04T12:30:26.508Z,6.57
2022-10-04T12:33:03.480Z,5.57
2022-10-04T12:35:35.590Z,6.53
2022-10-04T12:38:13.695Z,6.03
2022-10-04T12:40:44.446Z,6.22
2022-10-04T12:43:17.787Z,5.85
2022-10-04T12:45:52.564Z,5.70
2022-10-04T12:48:48.249Z,7.30
2022-10-04T12:51:29.936Z,6.20
2022-10-04T12:54:01.110Z,6.38
2022-10-04T12:56:47.017Z,6.97
2022-10-04T12:59:27.779Z,7.18
2022-10-04T13:02:01.688Z,7.05
2022-10-04T13:04:34.279Z,7.05
2022-10-04T13:07:08.923Z,7.65
2022-10-04T13:09:51.805Z,7.30
2022-10-04T13:12:39.488Z,6.80
2022-10-04T13:15:19.189Z,6.75
2022-10-04T13:17:50.505Z,7.15
2022-10-04T13:20:23.882Z,6.65
2022-10-04T13:22:57.738Z,6.75
2022-10-04T13:25:46.157Z,6.70
2022-10-04T13:28:20.696Z,6.57
2022-10-04T13:30:51.988Z,7.88
2022-10-04T13:33:26.799Z,6.30
2022-10-04T13:35:56.653Z,6.78
2022-10-04T13:38:31.984Z,6.25
2022-10-04T13:41:09.105Z,6.05
2022-10-04T13:43:50.191Z,6.85
2022-10-04T13:46:23.349Z,6.47
2022-10-04T13:48:58.044Z,6.35
2022-10-04T13:51:33.130Z,5.82
2022-10-04T13:54:25.258Z,5.45
2022-10-04T13:56:57.577Z,5.70
2022-10-04T13:59:34.628Z,6.45
2022-10-04T14:02:17.612Z,6.32
2022-10-04T14:05:08.267Z,5.90
2022-10-04T14:07:46.019Z,8.10
2022-10-04T14:10:32.362Z,8.05
2022-10-04T14:13:18.076Z,6.65
2022-10-04T14:16:04.537Z,9.20
2022-10-04T14:18:50.931Z,6.72
2022-10-04T14:21:43.059Z,5.53
2022-10-04T14:24:29.097Z,5.95
2022-10-04T14:27:11.550Z,5.80
2022-10-04T14:29:52.415Z,6.90
2022-10-04T14:32:53.039Z,5.90
2022-10-04T14:35:22.038Z,6.38
2022-10-04T14:38:04.479Z,5.88
2022-10-04T14:40:52.871Z,5.82
2022-10-04T14:43:44.085Z,6.65
2022-10-04T14:46:18.260Z,6.05
2022-10-04T14:48:52.241Z,6.75
2022-10-04T14:51:34.748Z,6.63
2022-10-04T14:54:05.544Z,6.90
2022-10-04T14:56:43.934Z,6.15
2022-10-04T14:59:22.303Z,6.70
2022-10-04T15:02:05.372Z,6.40
2022-10-04T15:04:36.534Z,6.57
2022-10-04T15:07:05.167Z,6.35
2022-10-04T15:09:49.660Z,5.85
2022-10-04T15:13:09.363Z,7.22
2022-10-04T15:15:52.167Z,7.03
2022-10-04T15:18:27.654Z,6.80
2022-10-04T15:20:58.851Z,6.85
2022-10-04T15:23:37.963Z,7.03
2022-10-04T15:26:09.304Z,7.07
2022-10-04T15:28:47.522Z,6.57
2022-10-04T15:31:20.066Z,6.43
2022-10-04T15:33:56.529Z,6.53
2022-10-04T15:36:34.245Z,6.97
2022-10-04T15:39:04.760Z,6.32
2022-10-04T15:41:36.629Z,6.90
2022-10-04T15:44:28.657Z,7.40
2022-10-04T15:47:07.188Z,7.05
2022-10-04T15:49:48.955Z,7.63
2022-10-04T15:52:32.800Z,7.63
2022-10-04T15:55:19.483Z,7.93
2022-10-04T15:58:11.335Z,7.57
2022-10-04T16:00:44.424Z,7.38
2022-10-04T16:03:17.046Z,7.90
2022-10-04T16:05:47.083Z,7.88
2022-10-04T16:08:35.797Z,8.15
2022-10-04T16:11:13.278Z,7.85
2022-10-04T16:13:57.226Z,7.70
2022-10-04T16:16:31.970Z,8.48
2022-10-04T16:19:03.055Z,8.73
2022-10-04T16:21:32.588Z,7.97
2022-10-04T16:24:18.983Z,7.68
2022-10-04T16:27:15.440Z,8.80
2022-10-04T16:30:14.473Z,8.32
2022-10-04T16:32:42.469Z,8.80
2022-10-04T16:35:17.983Z,8.25
2022-10-04T16:37:53.807Z,9.02
2022-10-04T16:40:27.212Z,8.57
2022-10-04T16:43:01.198Z,8.55
2022-10-04T16:45:36.240Z,8.23
2022-10-04T16:48:07.560Z,8.13
2022-10-04T16:50:53.611Z,7.97
2022-10-04T16:53:26.651Z,8.25
2022-10-04T16:55:55.950Z,8.32
2022-10-04T16:58:57.114Z,8.80
2022-10-04T17:01:39.254Z,8.68
2022-10-04T17:04:16.675Z,8.25
2022-10-04T17:06:47.465Z,8.48
2022-10-04T17:09:19.903Z,8.07
2022-10-04T17:11:59.484Z,8.68
2022-10-04T17:14:37.623Z,8.38
2022-10-04T17:17:12.300Z,8.32
2022-10-04T17:19:44.111Z,8.93
2022-10-04T17:22:16.999Z,8.50
2022-10-04T17:24:51.712Z,8.40
2022-10-04T17:27:35.059Z,8.27
2022-10-04T17:30:15.352Z,8.85
2022-10-04T17:32:50.003Z,7.80
2022-10-04T17:35:23.882Z,8.07
2022-10-04T17:37:54.145Z,8.32
2022-10-04T17:40:28.609Z,10.60
2022-10-04T17:43:00.480Z,13.35
2022-10-04T17:45:35.969Z,7.47
2022-10-04T17:48:23.898Z,7.82
2022-10-04T17:51:13.680Z,8.02
2022-10-04T17:54:00.126Z,7.50
2022-10-04T17:56:30.047Z,7.57
2022-10-04T17:58:58.992Z,6.95
2022-10-04T18:01:28.546Z,7.95
2022-10-04T18:04:00.709Z,8.43
2022-10-04T18:06:31.116Z,8.27
2022-10-04T18:08:59.673Z,8.45
2022-10-04T18:11:31.274Z,8.45
2022-10-04T18:14:02.307Z,8.63
2022-10-04T18:16:31.135Z,9.02
2022-10-04T18:19:02.852Z,7.95
2022-10-04T18:21:31.209Z,7.72
2022-10-04T18:24:00.143Z,8.13
2022-10-04T18:26:29.835Z,7.35
2022-10-04T18:28:58.395Z,7.43
2022-10-04T18:31:39.512Z,8.52
2022-10-04T18:34:28.453Z,8.38
2022-10-04T18:37:05.386Z,7.88
2022-10-04T18:39:33.778Z,8.13
2022-10-04T18:42:08.048Z,7.53
2022-10-04T18:44:45.083Z,7.05
2022-10-04T18:47:16.748Z,8.07
2022-10-04T18:49:50.998Z,8.20
2022-10-04T18:52:22.879Z,8.15
2022-10-04T18:54:54.396Z,7.85
2022-10-04T18:57:27.789Z,10.15
2022-10-04T19:00:14.788Z,8.32
2022-10-04T19:02:47.485Z,9.77
2022-10-04T19:05:19.486Z,7.20
2022-10-04T19:07:51.318Z,9.02
2022-10-04T19:10:22.448Z,7.90
2022-10-04T19:12:58.576Z,7.22
2022-10-04T19:15:36.192Z,6.97
2022-10-04T19:18:11.187Z,7.85
2022-10-04T19:20:41.852Z,8.05
2022-10-04T19:23:19.527Z,7.22
2022-10-04T19:26:09.958Z,7.03
2022-10-04T19:28:37.542Z,7.40
2022-10-04T19:31:10.020Z,8.07
2022-10-04T19:33:41.662Z,9.57
2022-10-04T19:36:16.773Z,7.18
2022-10-04T19:38:52.251Z,7.60
2022-10-04T19:41:24.553Z,7.78
2022-10-04T19:43:55.699Z,8.10
2022-10-04T19:46:29.757Z,7.97
2022-10-04T19:48:57.645Z,7.90
2022-10-04T19:51:29.779Z,7.88
2022-10-04T19:54:00.780Z,10.05
2022-10-04T19:56:30.024Z,9.70
2022-10-04T19:59:01.558Z,7.72
2022-10-04T20:01:29.788Z,7.55
2022-10-04T20:04:11.473Z,8.48
2022-10-04T20:06:40.686Z,8.60
2022-10-04T20:09:26.380Z,8.40
2022-10-04T20:11:54.198Z,9.30
2022-10-04T20:14:55.166Z,8.90
2022-10-04T20:17:33.441Z,9.18
2022-10-04T20:20:01.283Z,8.30
2022-10-04T20:22:46.791Z,9.20
2022-10-04T20:25:35.672Z,8.48
2022-10-04T20:28:04.716Z,8.30
2022-10-04T20:30:59.380Z,9.73
2022-10-04T20:33:45.445Z,7.82
2022-10-04T20:36:15.261Z,7.40
2022-10-04T20:38:46.789Z,8.48
2022-10-04T20:41:29.258Z,8.73
2022-10-04T20:43:58.965Z,8.70
2022-10-04T20:46:27.775Z,8.48
2022-10-04T20:48:55.778Z,8.07
2022-10-04T20:51:24.479Z,11.10
2022-10-04T20:53:52.580Z,10.38
2022-10-04T20:56:23.982Z,8.68
2022-10-04T20:58:52.441Z,8.52
2022-10-04T21:01:41.921Z,8.02
2022-10-04T21:04:16.125Z,8.07
2022-10-04T21:06:52.981Z,8.02
2022-10-04T21:09:20.602Z,8.05
2022-10-04T21:11:48.836Z,8.13
2022-10-04T21:14:23.316Z,7.72
2022-10-04T21:16:55.526Z,8.20
2022-10-04T21:19:50.164Z,8.48
2022-10-04T21:22:34.341Z,8.73
2022-10-04T21:25:02.618Z,7.50
2022-10-04T21:27:30.939Z,9.48
2022-10-04T21:29:59.084Z,9.73
2022-10-04T21:32:28.677Z,9.43
2022-10-04T21:34:56.228Z,7.68
2022-10-04T21:37:23.892Z,8.10
2022-10-04T21:39:51.388Z,11.05
2022-10-04T21:42:19.169Z,7.88
2022-10-04T21:44:46.714Z,8.77
2022-10-04T21:47:14.311Z,9.23
2022-10-04T21:49:43.512Z,7.75
2022-10-04T21:52:11.161Z,7.60
2022-10-04T21:54:38.747Z,8.30
2022-10-04T21:57:06.333Z,8.60
2022-10-04T21:59:33.900Z,7.80
2022-10-04T22:02:01.678Z,8.40
2022-10-04T22:04:29.384Z,9.93
2022-10-04T22:06:58.289Z,11.00
2022-10-04T22:09:27.016Z,8.07
2022-10-04T22:11:54.576Z,13.20
2022-10-04T22:14:22.134Z,9.30
2022-10-04T22:16:50.296Z,9.05
2022-10-04T22:19:18.557Z,8.35
2022-10-04T22:21:46.084Z,8.18
2022-10-04T22:24:17.081Z,10.60
2022-10-04T22:26:44.982Z,9.10
2022-10-04T22:29:13.530Z,8.55
2022-10-04T22:31:44.155Z,8.45
2022-10-04T22:34:14.762Z,9.55
2022-10-04T22:36:42.476Z,11.02
2022-10-04T22:39:11.988Z,7.57
2022-10-04T22:41:41.577Z,7.93
2022-10-04T22:44:13.276Z,8.55
2022-10-04T22:46:42.336Z,8.27
2022-10-04T22:49:11.045Z,8.27
2022-10-04T22:51:38.943Z,8.02
2022-10-04T22:54:10.809Z,9.20
2022-10-04T22:56:38.483Z,7.95
2022-10-04T22:59:09.729Z,9.05
2022-10-04T23:01:37.559Z,9.07
2022-10-04T23:04:05.309Z,9.15
2022-10-04T23:06:32.888Z,11.65
2022-10-04T23:09:00.477Z,8.25
2022-10-04T23:11:31.451Z,7.65
2022-10-04T23:13:59.197Z,10.40
2022-10-04T23:16:28.281Z,9.20
2022-10-04T23:19:04.392Z,8.43
2022-10-04T23:21:34.455Z,8.27
2022-10-04T23:24:06.419Z,8.30
2022-10-04T23:26:37.499Z,7.88
2022-10-04T23:29:06.912Z,8.45
2022-10-04T23:31:37.721Z,8.57
2022-10-04T23:34:14.380Z,10.00
2022-10-04T23:36:42.038Z,7.88
2022-10-04T23:39:12.786Z,8.07
2022-10-04T23:41:40.364Z,8.43
2022-10-04T23:44:12.055Z,8.82
2022-10-04T23:46:40.917Z,8.43
2022-10-04T23:49:09.979Z,8.18
2022-10-04T23:51:37.579Z,8.57
2022-10-04T23:54:06.836Z,9.45
2022-10-04T23:56:34.532Z,8.90
2022-10-04T23:59:02.047Z,9.68
